Time;durP1;ratioP1;P1;durP2;ratioP2;P2;SDS_P1;SDS_P2;PMS_P1;PMS_P2;Temp;Humidity;BMP_temperature;BMP_pressure;BME280_temperature;BME280_humidity;BME280_pressure;Samples;Min_cycle;Max_cycle;Signal;HPM_P1;HPM_P2
2021/01/27 00:00:48;;;;;;;15.63;8.90;;;;;;;0.52;69.58;99702.34;1689556;82;22231;-48
2021/01/27 00:03:17;;;;;;;14.80;8.05;;;;;;;0.49;69.69;99698.14;1692377;82;21159;-48
2021/01/27 00:05:48;;;;;;;17.27;9.40;;;;;;;0.47;69.75;99704.34;1693092;82;21176;-48
2021/01/27 00:08:16;;;;;;;17.98;10.28;;;;;;;0.45;69.88;99703.13;1694838;82;27190;-48
2021/01/27 00:10:44;;;;;;;18.12;9.18;;;;;;;0.43;69.89;99708.88;1694346;82;21214;-48
2021/01/27 00:13:15;;;;;;;14.85;9.30;;;;;;;0.41;69.88;99711.55;1695488;82;21163;-49
2021/01/27 00:15:43;;;;;;;16.40;10.05;;;;;;;0.40;70.04;99703.34;1675110;83;21049;-48
2021/01/27 00:18:12;;;;;;;14.50;8.65;;;;;;;0.40;70.06;99708.55;1695243;82;21684;-48
2021/01/27 00:20:41;;;;;;;14.53;8.05;;;;;;;0.39;69.99;99706.05;1694812;82;21144;-48
2021/01/27 00:23:09;;;;;;;17.52;9.35;;;;;;;0.37;70.03;99709.19;1695045;82;21396;-49
2021/01/27 00:25:37;;;;;;;17.67;9.58;;;;;;;0.36;70.11;99707.50;1694536;82;21176;-49
2021/01/27 00:28:06;;;;;;;17.73;9.25;;;;;;;0.36;70.09;99710.11;1695223;82;22040;-48
2021/01/27 00:30:37;;;;;;;17.55;8.85;;;;;;;0.34;70.12;99714.55;1694872;82;21197;-48
2021/01/27 00:33:06;;;;;;;19.27;9.78;;;;;;;0.33;70.19;99705.88;1695109;82;21124;-48
2021/01/27 00:35:37;;;;;;;17.52;9.85;;;;;;;0.33;70.25;99704.58;1672836;84;21456;-48
2021/01/27 00:38:15;;;;;;;16.00;8.95;;;;;;;0.33;70.24;99701.97;1694355;82;21180;-48
2021/01/27 00:40:42;;;;;;;17.05;9.33;;;;;;;0.35;70.33;99696.70;1694812;82;21148;-48
2021/01/27 00:43:10;;;;;;;18.20;8.95;;;;;;;0.34;70.27;99697.16;1694573;82;21146;-48
2021/01/27 00:45:38;;;;;;;15.95;8.65;;;;;;;0.35;70.29;99693.63;1695346;81;22070;-48
2021/01/27 00:48:07;;;;;;;16.67;9.18;;;;;;;0.34;70.26;99693.72;1694920;82;22772;-49
2021/01/27 00:50:35;;;;;;;16.50;9.03;;;;;;;0.31;70.27;99700.39;1695765;82;22173;-48
2021/01/27 00:53:03;;;;;;;15.28;9.05;;;;;;;0.27;70.38;99686.22;1694273;82;21156;-48
2021/01/27 00:55:33;;;;;;;17.62;9.18;;;;;;;0.25;70.48;99680.70;1694629;82;21181;-48
2021/01/27 00:58:01;;;;;;;17.02;9.75;;;;;;;0.21;70.58;99681.33;1694873;82;21792;-48
2021/01/27 01:00:33;;;;;;;16.50;8.90;;;;;;;0.19;70.73;99678.41;1695420;82;21159;-49
2021/01/27 01:03:04;;;;;;;14.98;8.55;;;;;;;0.17;70.88;99681.09;1669783;83;21179;-49
2021/01/27 01:05:35;;;;;;;15.75;9.10;;;;;;;0.14;70.98;99679.48;1687884;82;21148;-49
2021/01/27 01:08:03;;;;;;;17.45;9.78;;;;;;;0.15;71.14;99685.54;1695109;82;22075;-49
2021/01/27 01:10:38;;;;;;;14.85;8.88;;;;;;;0.18;71.24;99692.34;1694848;82;21033;-48
2021/01/27 01:13:11;;;;;;;19.05;9.68;;;;;;;0.21;71.28;99683.93;1694279;82;21383;-48
2021/01/27 01:15:38;;;;;;;19.02;8.95;;;;;;;0.22;71.20;99676.95;1694986;82;21148;-49
2021/01/27 01:18:06;;;;;;;18.15;10.05;;;;;;;0.23;71.10;99686.44;1694842;82;21140;-49
2021/01/27 01:20:34;;;;;;;16.90;9.40;;;;;;;0.20;71.10;99682.25;1695340;82;21993;-48
2021/01/27 01:23:02;;;;;;;16.00;9.63;;;;;;;0.19;71.20;99689.67;1694475;82;22176;-48
2021/01/27 01:25:32;;;;;;;18.45;10.30;;;;;;;0.14;71.32;99685.98;1694615;82;21465;-48
2021/01/27 01:28:00;;;;;;;21.02;10.03;;;;;;;0.16;71.44;99683.77;1694350;82;22094;-49
2021/01/27 01:30:35;;;;;;;20.85;11.28;;;;;;;0.17;71.47;99693.25;1694786;82;22268;-48
2021/01/27 01:33:10;;;;;;;19.80;11.03;;;;;;;0.18;71.54;99680.63;1695081;82;21517;-48
2021/01/27 01:35:38;;;;;;;20.02;10.68;;;;;;;0.21;71.42;99685.67;1695789;82;21774;-49
2021/01/27 01:38:06;;;;;;;21.95;10.45;;;;;;;0.21;71.40;99682.63;1694830;82;21213;-48
2021/01/27 01:40:38;;;;;;;19.48;10.08;;;;;;;0.22;71.42;99679.11;1702629;81;21163;-48
2021/01/27 01:43:17;;;;;;;18.45;10.05;;;;;;;0.24;71.41;99678.56;1653615;86;21634;-48
2021/01/27 01:45:56;;;;;;;21.07;11.22;;;;;;;0.25;71.36;99670.28;1694431;82;21143;-49
2021/01/27 01:48:38;;;;;;;20.70;10.75;;;;;;;0.26;71.28;99668.06;1694968;82;21140;-49
2021/01/27 01:51:16;;;;;;;20.60;10.48;;;;;;;0.25;71.23;99665.94;1674557;82;21383;-49
2021/01/27 01:53:47;;;;;;;16.95;10.03;;;;;;;0.26;71.29;99661.55;1674734;82;21167;-48
2021/01/27 01:56:17;;;;;;;21.52;10.95;;;;;;;0.24;71.25;99659.48;1677101;82;22018;-49
2021/01/27 01:58:45;;;;;;;18.60;10.13;;;;;;;0.23;71.33;99656.51;1679762;82;21841;-48
2021/01/27 02:01:13;;;;;;;21.02;11.33;;;;;;;0.23;71.42;99654.77;1674209;82;21176;-48
2021/01/27 02:03:41;;;;;;;22.05;11.20;;;;;;;0.24;71.41;99657.74;1681030;82;23006;-49
2021/01/27 02:06:11;;;;;;;20.80;11.12;;;;;;;0.25;71.51;99654.22;1647901;85;21269;-48
2021/01/27 02:08:44;;;;;;;22.07;11.53;;;;;;;0.27;71.56;99655.43;1676879;84;21165;-49
2021/01/27 02:11:15;;;;;;;22.13;11.22;;;;;;;0.29;71.49;99653.14;1676755;84;21173;-49
2021/01/27 02:14:12;;;;;;;22.27;10.70;;;;;;;0.29;71.47;99656.19;1674672;83;21187;-49
2021/01/27 02:17:06;;;;;;;21.10;11.28;;;;;;;0.28;71.45;99653.20;1673488;85;21167;-49
2021/01/27 02:20:01;;;;;;;22.37;11.55;;;;;;;0.28;71.55;99651.46;1682588;84;21163;-49
2021/01/27 02:23:18;;;;;;;17.07;9.85;;;;;;;0.31;71.46;99650.45;1630604;86;21138;-49
2021/01/27 02:26:22;;;;;;;20.65;10.05;;;;;;;0.32;71.39;99647.40;1668005;83;21021;-49
2021/01/27 02:29:31;;;;;;;17.55;10.10;;;;;;;0.31;71.46;99650.45;1666891;83;21135;-49
2021/01/27 02:32:10;;;;;;;19.15;10.30;;;;;;;0.32;71.48;99661.72;1681845;84;21516;-49
2021/01/27 02:35:11;;;;;;;19.02;10.30;;;;;;;0.34;71.51;99658.58;1690309;82;21165;-49
2021/01/27 02:37:44;;;;;;;20.45;10.50;;;;;;;0.34;71.58;99646.38;1646804;84;21188;-49
2021/01/27 02:40:29;;;;;;;20.35;10.98;;;;;;;0.38;71.61;99644.48;1753012;77;23016;-49
2021/01/27 02:43:05;;;;;;;22.50;13.25;;;;;;;0.34;71.61;99652.89;1739111;80;22089;-49
2021/01/27 02:45:36;;;;;;;21.35;11.48;;;;;;;0.35;71.55;99646.77;1707315;82;21645;-49
2021/01/27 02:48:22;;;;;;;23.47;13.80;;;;;;;0.38;71.37;99646.61;1725791;80;21042;-49
2021/01/27 02:50:57;;;;;;;23.73;12.95;;;;;;;0.38;71.15;99645.30;1740421;78;20987;-49
2021/01/27 02:53:29;;;;;;;21.10;13.38;;;;;;;0.35;71.00;99648.55;1742917;81;21524;-49
2021/01/27 02:56:08;;;;;;;22.07;12.20;;;;;;;0.32;71.06;99646.92;1743119;81;21598;-49
2021/01/27 02:58:44;;;;;;;19.87;11.60;;;;;;;0.28;71.12;99645.40;1761775;78;21773;-49
2021/01/27 03:01:34;;;;;;;19.87;10.60;;;;;;;0.24;71.38;99643.87;1748458;79;21015;-49
2021/01/27 03:04:07;;;;;;;21.15;11.93;;;;;;;0.23;71.55;99644.34;1730800;79;21006;-49
2021/01/27 03:06:35;;;;;;;20.77;10.93;;;;;;;0.21;71.61;99646.63;1740146;79;21141;-48
2021/01/27 03:09:17;;;;;;;19.75;11.03;;;;;;;0.19;71.66;99647.17;1725235;81;21033;-48
2021/01/27 03:11:45;;;;;;;20.60;11.85;;;;;;;0.17;71.66;99655.07;1710792;80;22934;-48
2021/01/27 03:14:13;;;;;;;20.72;10.58;;;;;;;0.13;71.74;99649.64;1728225;81;21982;-48
2021/01/27 03:16:52;;;;;;;23.07;12.07;;;;;;;0.09;71.94;99655.45;1737735;80;20990;-48
2021/01/27 03:19:44;;;;;;;23.05;12.03;;;;;;;0.08;71.98;99653.77;1727956;82;21136;-48
2021/01/27 03:22:18;;;;;;;21.23;11.10;;;;;;;0.05;72.20;99650.48;1707484;82;20943;-49
2021/01/27 03:24:53;;;;;;;24.75;12.20;;;;;;;0.03;72.33;99637.54;1721844;80;21218;-49
2021/01/27 03:27:24;;;;;;;23.12;12.43;;;;;;;0.04;72.42;99639.22;1711223;82;20975;-49
2021/01/27 03:29:55;;;;;;;20.62;11.90;;;;;;;0.06;72.48;99632.18;1722368;82;21014;-49
2021/01/27 03:32:33;;;;;;;;;;;;;;;0.08;72.33;99626.44;1725154;81;20995;-48
2021/01/27 03:35:15;;;;;;;22.17;11.50;;;;;;;0.09;72.46;99621.61;1739938;81;20640;-49
2021/01/27 03:37:51;;;;;;;19.42;11.48;;;;;;;0.10;72.52;99618.56;1721351;82;21143;-48
2021/01/27 03:40:19;;;;;;;22.30;11.53;;;;;;;0.10;72.59;99615.48;1674857;82;21038;-48
2021/01/27 03:43:07;;;;;;;20.23;11.45;;;;;;;0.14;72.54;99614.41;1710608;81;21165;-48
2021/01/27 03:45:36;;;;;;;23.30;12.58;;;;;;;0.16;72.48;99614.34;1722090;80;20995;-48
2021/01/27 03:48:16;;;;;;;20.92;10.98;;;;;;;0.17;72.40;99619.94;1701191;82;21137;-48
2021/01/27 03:50:43;;;;;;;19.57;12.25;;;;;;;0.16;72.59;99618.25;1735087;82;23058;-48
2021/01/27 03:53:16;;;;;;;22.55;12.13;;;;;;;0.21;72.62;99615.40;1705219;82;21058;-48
2021/01/27 03:56:15;;;;;;;21.17;11.70;;;;;;;0.22;72.53;99619.23;1708197;80;21002;-48
2021/01/27 03:58:47;;;;;;;18.73;11.48;;;;;;;0.23;72.58;99625.27;1733680;80;21616;-48
2021/01/27 04:01:17;;;;;;;22.20;12.23;;;;;;;0.22;72.62;99632.25;1715839;81;21002;-48
2021/01/27 04:03:45;;;;;;;23.70;12.40;;;;;;;0.22;72.66;99636.16;1727333;81;21204;-48
2021/01/27 04:06:13;;;;;;;23.57;12.25;;;;;;;0.22;72.71;99632.70;1727925;81;21168;-48
2021/01/27 04:08:40;;;;;;;22.10;12.68;;;;;;;0.23;72.69;99625.27;1721530;80;22034;-48
2021/01/27 04:11:08;;;;;;;24.20;13.22;;;;;;;0.25;72.71;99627.33;1721164;81;21010;-48
2021/01/27 04:13:36;;;;;;;22.02;12.58;;;;;;;0.25;72.71;99631.24;1729356;81;21154;-48
2021/01/27 04:16:04;;;;;;;26.70;13.40;;;;;;;0.27;72.73;99630.26;1722839;82;21595;-48
2021/01/27 04:18:32;;;;;;;25.62;13.60;;;;;;;0.29;72.69;99621.91;1720582;81;21658;-48
2021/01/27 04:21:01;;;;;;;22.70;13.22;;;;;;;0.28;72.66;99628.48;1710036;82;21027;-48
2021/01/27 04:23:29;;;;;;;24.10;12.73;;;;;;;0.28;72.71;99629.78;1733304;80;22239;-48
2021/01/27 04:25:57;;;;;;;21.12;12.85;;;;;;;0.26;72.68;99634.22;1721467;80;21133;-49
2021/01/27 04:28:25;;;;;;;21.55;11.97;;;;;;;0.24;72.83;99642.13;1737113;81;22075;-49
2021/01/27 04:30:53;;;;;;;23.10;12.30;;;;;;;0.25;72.81;99641.20;1729738;81;21021;-48
2021/01/27 04:33:21;;;;;;;24.25;12.73;;;;;;;0.26;72.91;99647.23;1721392;80;21136;-48
2021/01/27 04:35:49;;;;;;;21.05;12.18;;;;;;;0.26;72.83;99642.03;1733855;81;21573;-48
2021/01/27 04:38:16;;;;;;;22.13;12.55;;;;;;;0.27;72.93;99644.58;1727889;80;21132;-48
2021/01/27 04:40:46;;;;;;;20.95;12.37;;;;;;;0.29;72.88;99649.69;1703147;82;22935;-48
2021/01/27 04:43:33;;;;;;;23.25;12.25;;;;;;;0.31;72.93;99649.14;1705575;83;22131;-48
2021/01/27 04:46:33;;;;;;;21.82;11.75;;;;;;;0.31;72.83;99649.63;1754437;80;20945;-48
2021/01/27 04:49:16;;;;;;;21.33;12.28;;;;;;;0.28;72.95;99646.70;1753899;81;21111;-48
2021/01/27 04:52:23;;;;;;;22.22;11.83;;;;;;;0.26;72.98;99651.14;1754332;81;21099;-48
2021/01/27 04:55:12;;;;;;;26.30;12.53;;;;;;;0.24;73.07;99651.68;1703471;83;22216;-48
2021/01/27 04:58:03;;;;;;;23.07;12.47;;;;;;;0.23;73.17;99653.45;1702761;83;21162;-48
2021/01/27 05:00:59;;;;;;;18.95;10.20;;;;;;;0.24;73.19;99654.28;1704387;81;21003;-49
2021/01/27 05:03:47;;;;;;;21.97;13.08;;;;;;;0.22;73.31;99648.31;1725968;81;21620;-49
2021/01/27 05:06:26;;;;;;;25.05;13.88;;;;;;;0.19;73.48;99644.13;1751277;81;21926;-49
2021/01/27 05:09:24;;;;;;;23.92;13.08;;;;;;;0.22;73.59;99645.72;1751246;81;22970;-49
2021/01/27 05:11:51;;;;;;;23.02;13.13;;;;;;;0.25;73.36;99651.63;1747695;80;20951;-48
2021/01/27 05:14:19;;;;;;;20.82;13.08;;;;;;;0.25;73.37;99646.41;1746338;80;21005;-48
2021/01/27 05:16:50;;;;;;;21.60;12.65;;;;;;;0.28;73.41;99644.09;1732766;80;21968;-49
2021/01/27 05:19:18;;;;;;;24.43;13.18;;;;;;;0.33;73.42;99651.20;1735985;80;20968;-47
2021/01/27 05:21:53;;;;;;;27.45;13.40;;;;;;;0.35;72.94;99645.94;1736019;80;21192;-48
2021/01/27 05:24:20;;;;;;;24.10;13.28;;;;;;;0.34;72.93;99643.78;1745800;80;21136;-48
2021/01/27 05:26:58;;;;;;;22.58;12.80;;;;;;;0.33;72.89;99646.00;1745129;80;21600;-48
2021/01/27 05:29:34;;;;;;;27.02;13.88;;;;;;;0.35;73.03;99653.27;1741631;80;21120;-48
2021/01/27 05:32:11;;;;;;;25.82;14.43;;;;;;;0.35;73.05;99658.48;1736192;80;20982;-48
2021/01/27 05:34:51;;;;;;;24.77;14.63;;;;;;;0.35;72.99;99661.09;1742312;80;21128;-49
2021/01/27 05:37:32;;;;;;;24.60;13.50;;;;;;;0.32;72.96;99665.63;1739979;80;20949;-48
2021/01/27 05:40:23;;;;;;;25.72;14.13;;;;;;;0.29;73.06;99677.88;1736890;80;21116;-52
2021/01/27 05:42:50;;;;;;;25.12;13.32;;;;;;;0.30;73.07;99677.40;1746170;79;20980;-48
2021/01/27 05:45:45;;;;;;;22.52;13.25;;;;;;;0.28;73.17;99680.55;1744676;79;21009;-48
2021/01/27 05:48:34;;;;;;;99.77;35.20;;;;;;;0.27;73.30;99678.41;1754673;79;21232;-49
2021/01/27 05:51:10;;;;;;;40.48;18.77;;;;;;;0.24;73.02;99679.02;1745493;79;21011;-48
2021/01/27 05:53:39;;;;;;;73.80;27.67;;;;;;;0.12;73.15;99683.92;1747027;80;21018;-48
2021/01/27 05:56:21;;;;;;;60.15;24.67;;;;;;;0.08;73.28;99687.59;1748448;79;21123;-49
2021/01/27 05:59:06;;;;;;;45.80;17.50;;;;;;;0.03;73.30;99690.88;1752361;79;20970;-49
2021/01/27 06:01:42;;;;;;;37.20;16.23;;;;;;;-0.03;73.57;99690.74;1754420;79;21402;-48
2021/01/27 06:04:15;;;;;;;57.67;22.22;;;;;;;-0.08;73.80;99686.70;1716590;80;21960;-48
2021/01/27 06:06:52;;;;;;;91.17;33.50;;;;;;;-0.12;73.92;99695.09;1720990;82;22123;-48
2021/01/27 06:09:43;;;;;;;70.60;27.02;;;;;;;-0.19;74.18;99698.47;1702793;82;21208;-48
2021/01/27 06:12:25;;;;;;;49.45;23.57;;;;;;;-0.17;74.44;99698.38;1820392;77;22827;-48
2021/01/27 06:15:13;;;;;;;25.57;13.48;;;;;;;-0.16;74.96;99701.37;1758150;78;21241;-49
2021/01/27 06:17:47;;;;;;;24.02;13.40;;;;;;;-0.08;75.06;99701.83;1761803;78;23174;-50
2021/01/27 06:20:31;;;;;;;25.08;13.53;;;;;;;-0.04;74.79;99698.64;1730993;80;21403;-48
2021/01/27 06:23:20;;;;;;;24.50;14.15;;;;;;;0.00;74.78;99696.27;1786213;77;21196;-48
2021/01/27 06:26:13;;;;;;;27.50;14.40;;;;;;;0.07;74.99;99704.59;1757114;79;21203;-48
2021/01/27 06:29:10;;;;;;;32.80;17.23;;;;;;;0.11;74.99;99705.66;1761664;79;21527;-48
2021/01/27 06:32:13;;;;;;;35.17;18.42;;;;;;;0.20;75.08;99711.32;1808364;77;21070;-48
2021/01/27 06:35:03;;;;;;;33.98;18.75;;;;;;;0.27;74.88;99706.19;1789137;77;21073;-47
2021/01/27 06:37:43;;;;;;;35.70;19.62;;;;;;;0.29;74.69;99712.16;1797098;77;21050;-48
2021/01/27 06:40:30;;;;;;;36.95;19.17;;;;;;;0.27;74.73;99708.80;1778936;78;21184;-48
2021/01/27 06:43:10;;;;;;;31.40;17.23;;;;;;;0.26;74.91;99705.36;1775949;78;21843;-48
2021/01/27 06:45:58;;;;;;;30.27;16.82;;;;;;;0.25;75.00;99701.52;1750334;79;21394;-48
2021/01/27 06:48:31;;;;;;;34.48;17.77;;;;;;;0.27;75.10;99704.89;1742871;78;21196;-49
2021/01/27 06:51:47;;;;;;;33.08;17.67;;;;;;;0.27;75.22;99702.28;1747078;79;21221;-49
2021/01/27 06:54:29;;;;;;;32.40;17.35;;;;;;;0.28;75.38;99699.62;1778412;78;21228;-48
2021/01/27 06:57:20;;;;;;;32.20;18.10;;;;;;;0.30;75.54;99707.34;1747737;79;21924;-48
2021/01/27 06:59:57;;;;;;;34.40;18.17;;;;;;;0.34;75.67;99705.44;1793361;78;21216;-49
2021/01/27 07:02:47;;;;;;;37.08;21.57;;;;;;;0.41;75.79;99706.33;1781660;78;21410;-49
2021/01/27 07:06:07;;;;;;;39.60;22.27;;;;;;;0.50;75.77;99709.39;1789240;78;21179;-48
2021/01/27 07:09:11;;;;;;;36.28;19.70;;;;;;;0.57;75.75;99700.34;1770818;79;21212;-48
2021/01/27 07:12:05;;;;;;;31.30;17.80;;;;;;;0.67;75.87;99699.39;1735457;80;21176;-48
2021/01/27 07:15:04;;;;;;;35.30;18.20;;;;;;;0.74;75.75;99690.33;1739261;80;21221;-48
2021/01/27 07:18:15;;;;;;;35.90;19.87;;;;;;;0.81;75.73;99694.77;1732448;81;21268;-48
2021/01/27 07:20:49;;;;;;;42.53;22.48;;;;;;;0.86;75.58;99700.58;1723174;82;21244;-48
2021/01/27 07:23:59;;;;;;;40.60;21.62;;;;;;;0.90;75.75;99701.25;1722482;82;21197;-48
2021/01/27 07:26:45;;;;;;;37.58;20.27;;;;;;;0.96;75.60;99706.98;1740100;81;21192;-49
2021/01/27 07:29:53;;;;;;;37.48;20.57;;;;;;;1.00;75.68;99711.11;1740967;81;21403;-48
2021/01/27 07:32:50;;;;;;;35.20;19.95;;;;;;;1.06;75.32;99716.45;1724756;81;22040;-48
2021/01/27 07:35:23;;;;;;;35.50;19.40;;;;;;;1.07;74.98;99714.66;1739120;81;21691;-49
2021/01/27 07:38:08;;;;;;;37.58;20.00;;;;;;;1.06;74.81;99717.75;1718514;81;21214;-48
2021/01/27 07:41:03;;;;;;;32.42;17.32;;;;;;;1.05;74.79;99717.84;1713189;82;21228;-49
2021/01/27 07:43:54;;;;;;;36.45;18.85;;;;;;;1.03;74.53;99719.22;1722375;81;23127;-49
2021/01/27 07:46:30;;;;;;;30.02;16.93;;;;;;;0.97;74.57;99707.37;1720086;81;20997;-49
2021/01/27 07:49:02;;;;;;;34.10;18.25;;;;;;;0.95;74.69;99707.05;1721173;81;21970;-48
2021/01/27 07:51:31;;;;;;;;;;;;;;;0.95;74.84;99707.91;1730672;81;20972;-49
2021/01/27 07:54:07;;;;;;;35.05;18.95;;;;;;;0.99;75.04;99702.92;1701003;81;20286;-49
2021/01/27 07:56:43;;;;;;;37.73;19.67;;;;;;;1.04;75.32;99707.87;1725649;81;21397;-49
2021/01/27 07:59:19;;;;;;;37.23;19.25;;;;;;;1.09;75.11;99699.78;1724400;81;21139;-49
2021/01/27 08:01:51;;;;;;;37.93;21.50;;;;;;;1.11;75.01;99707.06;1723525;81;20965;-48
2021/01/27 08:04:31;;;;;;;37.45;21.52;;;;;;;1.13;75.07;99706.52;1726652;81;21119;-47
2021/01/27 08:06:59;;;;;;;41.23;22.67;;;;;;;1.16;74.96;99703.75;1720005;81;21526;-49
2021/01/27 08:09:32;;;;;;;38.53;22.02;;;;;;;1.17;74.91;99708.03;1727392;81;22094;-49
2021/01/27 08:12:16;;;;;;;36.60;20.10;;;;;;;1.18;74.85;99705.81;1738655;80;21144;-49
2021/01/27 08:15:07;;;;;;;42.08;19.67;;;;;;;1.18;74.48;99707.97;1748342;80;21588;-49
2021/01/27 08:17:45;;;;;;;32.90;19.20;;;;;;;1.22;74.69;99699.50;1723509;80;21140;-49
2021/01/27 08:20:32;;;;;;;35.28;18.37;;;;;;;1.26;74.29;99699.72;1730742;80;21915;-49
2021/01/27 08:23:02;;;;;;;34.98;19.35;;;;;;;1.28;74.31;99696.56;1742508;80;21432;-49
2021/01/27 08:26:03;;;;;;;36.48;20.30;;;;;;;1.32;74.12;99699.86;1743015;80;20938;-49
2021/01/27 08:28:39;;;;;;;29.40;16.20;;;;;;;1.38;74.19;99702.58;1717241;81;21126;-49
2021/01/27 08:31:13;;;;;;;34.98;17.95;;;;;;;1.39;73.36;99705.56;1747665;80;21890;-48
2021/01/27 08:33:54;;;;;;;32.03;16.60;;;;;;;1.35;73.11;99704.91;1747616;80;21100;-48
2021/01/27 08:36:33;;;;;;;31.77;17.47;;;;;;;1.30;73.23;99705.62;1732840;80;21435;-48
2021/01/27 08:39:07;;;;;;;31.37;18.07;;;;;;;1.26;73.35;99704.10;1745154;81;21948;-49
2021/01/27 08:42:02;;;;;;;31.07;17.32;;;;;;;1.23;73.54;99702.48;1737065;81;21126;-48
2021/01/27 08:44:36;;;;;;;31.02;17.05;;;;;;;1.22;73.36;99698.67;1746613;81;21141;-49
2021/01/27 08:47:25;;;;;;;30.72;16.07;;;;;;;1.20;73.10;99697.44;1748938;80;21407;-49
2021/01/27 08:49:58;;;;;;;25.75;14.87;;;;;;;1.18;73.23;99705.36;1744285;80;22715;-49
2021/01/27 08:52:38;;;;;;;29.32;16.80;;;;;;;1.18;73.12;99701.45;1748198;81;21962;-48
2021/01/27 08:55:35;;;;;;;24.60;14.15;;;;;;;1.22;73.23;99698.20;1747977;80;21609;-49
2021/01/27 08:58:39;;;;;;;25.80;13.70;;;;;;;1.28;72.81;99703.08;1794115;77;23210;-48
2021/01/27 09:01:31;;;;;;;25.12;13.98;;;;;;;1.26;72.64;99707.54;1767729;79;20998;-49
2021/01/27 09:04:01;;;;;;;26.80;14.10;;;;;;;1.29;72.40;99701.33;1751389;79;21048;-49
2021/01/27 09:06:44;;;;;;;27.00;14.28;;;;;;;1.31;72.37;99699.00;1756538;78;21037;-48
2021/01/27 09:09:27;;;;;;;24.82;14.30;;;;;;;1.35;72.37;99696.23;1719296;81;21006;-49
2021/01/27 09:12:00;;;;;;;24.50;13.90;;;;;;;1.39;72.22;99699.05;1718834;82;20991;-49
2021/01/27 09:14:28;;;;;;;24.63;14.07;;;;;;;1.40;72.19;99694.20;1719014;83;20941;-49
2021/01/27 09:16:56;;;;;;;28.07;14.43;;;;;;;1.44;72.05;99694.41;1775540;80;21198;-49
2021/01/27 09:19:28;;;;;;;27.10;14.55;;;;;;;1.46;71.79;99692.56;1774254;80;21137;-49
2021/01/27 09:22:04;;;;;;;24.00;12.80;;;;;;;1.46;71.63;99693.87;1714567;80;20995;-49
2021/01/27 09:24:45;;;;;;;25.82;14.38;;;;;;;1.46;71.57;99683.44;1754366;79;20967;-49
2021/01/27 09:27:22;;;;;;;25.80;13.35;;;;;;;1.46;71.53;99692.12;1750784;81;21610;-50
2021/01/27 09:30:04;;;;;;;28.12;14.95;;;;;;;1.45;71.54;99685.66;1724846;82;21395;-49
2021/01/27 09:32:32;;;;;;;20.72;12.47;;;;;;;1.49;71.68;99695.00;1725005;82;20995;-49
2021/01/27 09:35:17;;;;;;;24.30;12.85;;;;;;;1.51;71.55;99697.54;1754087;80;21011;-49
2021/01/27 09:38:00;;;;;;;25.10;14.47;;;;;;;1.50;71.57;99694.08;1741061;80;21140;-50
2021/01/27 09:40:47;;;;;;;30.43;15.72;;;;;;;1.51;71.33;99691.84;1745004;81;20987;-49
2021/01/27 09:43:17;;;;;;;29.32;14.73;;;;;;;1.51;71.02;99694.93;1732416;81;22141;-48
2021/01/27 09:45:58;;;;;;;26.33;14.23;;;;;;;1.51;71.06;99697.54;1716792;81;21014;-48
2021/01/27 09:48:26;;;;;;;30.12;16.05;;;;;;;1.51;70.86;99698.37;1745477;81;21121;-49
2021/01/27 09:53:36;;;;;;;21.93;12.10;;;;;;;1.55;70.83;99695.14;1785331;77;22803;-49
2021/01/27 09:56:04;;;;;;;22.75;12.90;;;;;;;1.50;70.81;99695.86;1756229;80;20984;-48
2021/01/27 09:58:32;;;;;;;23.77;13.90;;;;;;;1.47;71.00;99691.19;1707009;82;22857;-48
2021/01/27 10:01:03;;;;;;;23.52;12.60;;;;;;;1.51;70.80;99685.33;1729224;80;21058;-49
2021/01/27 10:03:37;;;;;;;21.33;12.43;;;;;;;1.51;70.76;99684.50;1745655;80;21011;-49
2021/01/27 10:06:25;;;;;;;22.22;12.18;;;;;;;1.52;70.78;99680.48;1740417;82;20977;-49
2021/01/27 10:08:53;;;;;;;19.73;10.80;;;;;;;1.51;70.87;99678.80;1721593;81;22121;-49
2021/01/27 10:11:30;;;;;;;21.02;12.03;;;;;;;1.54;70.68;99677.80;1728543;81;22867;-49
2021/01/27 10:14:08;;;;;;;25.43;13.75;;;;;;;1.51;70.69;99673.59;1809750;78;21019;-49
2021/01/27 10:16:59;;;;;;;21.00;11.80;;;;;;;1.53;70.61;99681.34;1809555;78;21002;-49
2021/01/27 10:19:36;;;;;;;19.95;11.70;;;;;;;1.50;70.45;99671.91;1813968;77;21573;-49
2021/01/27 10:22:05;;;;;;;17.17;9.45;;;;;;;1.49;70.22;99671.53;1762983;80;20993;-49
2021/01/27 10:24:54;;;;;;;18.32;10.13;;;;;;;1.47;70.22;99670.77;1741561;81;22115;-49
2021/01/27 10:27:39;;;;;;;21.68;10.28;;;;;;;1.47;69.97;99659.89;1796193;78;20986;-48
2021/01/27 10:30:20;;;;;;;16.12;9.65;;;;;;;1.47;69.95;99656.42;1796200;78;21425;-49
2021/01/27 10:32:48;;;;;;;22.77;12.80;;;;;;;1.49;70.04;99658.48;1821399;77;20924;-49
2021/01/27 10:35:28;;;;;;;15.43;9.05;;;;;;;1.47;69.97;99658.59;1720509;82;21127;-49
2021/01/27 10:38:12;;;;;;;18.67;9.73;;;;;;;1.47;69.97;99658.59;1742777;81;22511;-49
2021/01/27 10:40:37;;;;;;;17.73;9.33;;;;;;;1.51;70.10;99667.06;1782130;78;21172;-49
2021/01/27 10:43:16;;;;;;;15.95;9.08;;;;;;;1.51;69.69;99660.55;1781473;78;21927;-49
2021/01/27 10:45:44;;;;;;;19.15;9.75;;;;;;;1.51;69.73;99661.02;1781219;77;21105;-49
2021/01/27 10:48:26;;;;;;;19.73;10.48;;;;;;;1.51;69.92;99666.23;1744417;80;22153;-50
2021/01/27 10:51:09;;;;;;;17.20;10.08;;;;;;;1.52;70.05;99661.41;1740514;80;21463;-48
2021/01/27 10:53:39;;;;;;;20.02;10.95;;;;;;;1.54;70.13;99660.38;1721147;81;21191;-48
2021/01/27 10:56:06;;;;;;;24.15;11.85;;;;;;;1.56;69.88;99657.21;1712979;83;21003;-48
2021/01/27 10:58:34;;;;;;;20.50;11.73;;;;;;;1.58;69.66;99655.84;1700117;83;21028;-49
2021/01/27 11:01:02;;;;;;;18.27;9.53;;;;;;;1.58;69.57;99655.36;1688202;83;21170;-49
2021/01/27 11:03:30;;;;;;;17.85;10.65;;;;;;;1.58;69.44;99650.63;1674394;84;21217;-50
2021/01/27 11:05:59;;;;;;;20.27;11.40;;;;;;;1.56;69.54;99646.78;1690275;83;22170;-48
2021/01/27 11:08:29;;;;;;;22.65;11.00;;;;;;;1.56;69.65;99645.95;1697448;83;22175;-48
2021/01/27 11:10:59;;;;;;;16.57;9.65;;;;;;;1.56;69.51;99645.48;1690020;83;22222;-48
2021/01/27 11:13:27;;;;;;;22.77;11.22;;;;;;;1.54;69.61;99644.72;1709633;83;20999;-49
2021/01/27 11:15:56;;;;;;;22.70;12.07;;;;;;;1.52;69.79;99642.66;1703469;82;21371;-49
2021/01/27 11:18:23;;;;;;;21.45;12.37;;;;;;;1.51;69.85;99642.28;1709855;83;21007;-49
2021/01/27 11:20:52;;;;;;;19.50;11.03;;;;;;;1.52;69.91;99637.92;1714668;82;21173;-50
2021/01/27 11:23:21;;;;;;;20.52;10.43;;;;;;;1.53;69.95;99639.12;1704887;83;21118;-49
2021/01/27 11:25:49;;;;;;;23.12;11.30;;;;;;;1.53;69.97;99637.00;1697869;83;21496;-49
2021/01/27 11:28:17;;;;;;;18.82;10.23;;;;;;;1.53;69.92;99637.00;1709775;83;21507;-49
2021/01/27 11:30:45;;;;;;;18.80;10.28;;;;;;;1.54;69.69;99633.46;1708861;83;21530;-48
2021/01/27 11:33:17;;;;;;;16.23;10.60;;;;;;;1.54;69.95;99632.16;1707018;81;21028;-49
2021/01/27 11:35:45;;;;;;;18.87;11.28;;;;;;;1.53;69.98;99630.48;1675900;83;21939;-49
2021/01/27 11:38:13;;;;;;;17.70;9.58;;;;;;;1.52;70.08;99628.31;1674113;85;21150;-49
2021/01/27 11:40:41;;;;;;;17.10;9.20;;;;;;;1.53;69.89;99629.17;1685855;82;21877;-49
2021/01/27 11:43:09;;;;;;;16.67;9.05;;;;;;;1.52;69.65;99633.53;1699368;83;21142;-49
2021/01/27 11:45:36;;;;;;;18.67;10.45;;;;;;;1.49;69.60;99629.80;1714796;83;21133;-49
2021/01/27 11:48:06;;;;;;;18.70;10.78;;;;;;;1.52;70.08;99641.84;1698003;83;21007;-49
2021/01/27 11:50:34;;;;;;;17.27;10.18;;;;;;;1.57;70.30;99641.11;1704208;83;21162;-49
2021/01/27 11:53:02;;;;;;;19.15;10.08;;;;;;;1.66;70.05;99635.82;1718458;81;22896;-49
2021/01/27 11:55:30;;;;;;;18.27;10.35;;;;;;;1.70;69.88;99629.50;1751851;81;21010;-49
2021/01/27 11:57:57;;;;;;;17.75;10.58;;;;;;;1.74;70.02;99625.78;1751663;81;21006;-48
2021/01/27 12:00:26;;;;;;;17.80;9.75;;;;;;;1.81;69.87;99624.50;1745004;81;20999;-48
2021/01/27 12:02:56;;;;;;;12.88;7.33;;;;;;;1.84;69.80;99620.86;1714879;81;21118;-48
2021/01/27 12:05:23;;;;;;;16.00;8.53;;;;;;;1.88;69.17;99619.30;1726751;82;21204;-49
2021/01/27 12:07:53;;;;;;;13.43;7.72;;;;;;;1.91;68.73;99623.48;1737621;81;21009;-48
2021/01/27 12:10:21;;;;;;;16.35;9.13;;;;;;;1.94;68.72;99625.09;1698057;84;20978;-48
2021/01/27 12:12:48;;;;;;;15.05;7.28;;;;;;;1.98;68.40;99619.59;1698460;81;21118;-48
2021/01/27 12:15:17;;;;;;;14.40;7.85;;;;;;;1.98;68.02;99615.67;1743177;79;21000;-48